createdAt,value
2018-10-18T00:01:01.927Z,20.10
2018-10-18T00:03:31.408Z,20.97
2018-10-18T00:06:00.650Z,20.93
2018-10-18T00:08:30.122Z,19.73
2018-10-18T00:10:59.254Z,17.97
2018-10-18T00:13:29.210Z,17.40
2018-10-18T00:15:58.534Z,19.90
2018-10-18T00:18:28.425Z,19.80
2018-10-18T00:20:58.193Z,23.13
2018-10-18T00:23:27.804Z,21.95
2018-10-18T00:25:57.401Z,21.03
2018-10-18T00:28:26.638Z,21.73
2018-10-18T00:30:56.107Z,19.17
2018-10-18T00:33:25.247Z,20.43
2018-10-18T00:35:54.782Z,20.33
2018-10-18T00:38:24.396Z,20.27
2018-10-18T00:40:53.620Z,19.10
2018-10-18T00:43:22.775Z,19.17
2018-10-18T00:45:52.087Z,18.37
2018-10-18T00:48:21.087Z,19.37
2018-10-18T00:50:50.742Z,20.37
2018-10-18T00:53:20.063Z,20.17
2018-10-18T00:55:49.500Z,18.87
2018-10-18T00:58:18.760Z,20.77
2018-10-18T01:00:48.172Z,19.50
2018-10-18T01:03:17.222Z,19.45
2018-10-18T01:05:50.954Z,19.07
2018-10-18T01:08:20.223Z,18.40
2018-10-18T01:10:49.733Z,19.27
2018-10-18T01:13:18.977Z,18.63
2018-10-18T01:15:48.117Z,20.50
2018-10-18T01:18:17.302Z,20.70
2018-10-18T01:20:47.053Z,20.17
2018-10-18T01:23:16.466Z,18.57
2018-10-18T01:25:45.626Z,17.73
2018-10-18T01:28:15.629Z,18.57
2018-10-18T01:30:44.728Z,17.67
2018-10-18T01:33:14.846Z,20.33
2018-10-18T01:35:43.843Z,19.70
2018-10-18T01:38:12.886Z,21.70
2018-10-18T01:40:41.984Z,18.57
2018-10-18T01:43:11.128Z,18.57
2018-10-18T01:45:40.400Z,17.50
2018-10-18T01:48:09.861Z,19.23
2018-10-18T01:50:39.006Z,18.37
2018-10-18T01:53:08.656Z,20.82
2018-10-18T01:55:38.333Z,19.20
2018-10-18T01:58:07.728Z,19.00
2018-10-18T02:00:37.365Z,18.17
2018-10-18T02:03:07.038Z,20.20
2018-10-18T02:05:36.426Z,19.73
2018-10-18T02:08:06.227Z,20.13
2018-10-18T02:10:35.742Z,18.03
2018-10-18T02:13:04.969Z,18.62
2018-10-18T02:15:34.258Z,19.60
2018-10-18T02:18:03.519Z,20.83
2018-10-18T02:20:33.496Z,18.30
2018-10-18T02:23:02.925Z,20.37
2018-10-18T02:25:32.326Z,21.07
2018-10-18T02:28:01.498Z,18.60
2018-10-18T02:30:30.794Z,18.23
2018-10-18T02:33:00.368Z,19.77
2018-10-18T02:35:30.130Z,16.33
2018-10-18T02:37:59.720Z,17.63
2018-10-18T02:40:29.015Z,17.77
2018-10-18T02:42:58.117Z,18.53
2018-10-18T02:45:27.318Z,19.63
2018-10-18T02:47:56.331Z,17.53
2018-10-18T02:50:25.623Z,20.97
2018-10-18T02:52:54.921Z,19.40
2018-10-18T02:55:24.229Z,19.13
2018-10-18T02:57:53.931Z,21.43
2018-10-18T03:00:23.126Z,19.57
2018-10-18T03:02:52.598Z,18.70
2018-10-18T03:05:21.817Z,18.40
2018-10-18T03:07:50.887Z,18.97
2018-10-18T03:10:20.106Z,19.07
2018-10-18T03:12:49.229Z,17.60
2018-10-18T03:15:18.749Z,18.20
2018-10-18T03:17:48.215Z,19.83
2018-10-18T03:20:17.589Z,17.83
2018-10-18T03:22:47.095Z,19.07
2018-10-18T03:25:16.331Z,18.87
2018-10-18T03:27:45.943Z,16.70
2018-10-18T03:30:15.617Z,18.07
2018-10-18T03:32:44.699Z,18.33
2018-10-18T03:35:13.986Z,20.60
2018-10-18T03:37:43.362Z,17.63
2018-10-18T03:40:12.677Z,17.37
2018-10-18T03:42:42.801Z,17.37
2018-10-18T03:45:12.327Z,16.23
2018-10-18T03:47:41.647Z,19.57
2018-10-18T03:50:10.809Z,19.23
2018-10-18T03:52:40.187Z,18.10
2018-10-18T03:55:09.225Z,19.23
2018-10-18T03:57:38.461Z,17.97
2018-10-18T04:00:08.531Z,17.63
2018-10-18T04:02:37.667Z,17.70
2018-10-18T04:05:08.335Z,16.63
2018-10-18T04:07:37.422Z,18.43
2018-10-18T04:10:07.351Z,17.70
2018-10-18T04:12:36.612Z,17.50
2018-10-18T04:15:06.461Z,17.83
2018-10-18T04:17:35.820Z,18.07
2018-10-18T04:20:05.833Z,20.27
2018-10-18T04:22:35.023Z,21.17
2018-10-18T04:25:04.791Z,16.60
2018-10-18T04:27:34.495Z,16.87
2018-10-18T04:30:04.099Z,21.43
2018-10-18T04:32:33.441Z,17.10
2018-10-18T04:35:03.029Z,17.30
2018-10-18T04:37:32.317Z,16.57
2018-10-18T04:40:01.954Z,16.93
2018-10-18T04:42:31.149Z,17.97
2018-10-18T04:45:00.611Z,17.50
2018-10-18T04:47:29.949Z,17.73
2018-10-18T04:49:58.831Z,17.87
2018-10-18T04:52:28.480Z,17.77
2018-10-18T04:54:57.837Z,18.27
2018-10-18T04:57:26.936Z,18.63
2018-10-18T04:59:56.617Z,20.43
2018-10-18T05:02:26.266Z,18.23
2018-10-18T05:05:06.407Z,18.07
2018-10-18T05:07:36.125Z,17.33
2018-10-18T05:10:06.156Z,20.60
2018-10-18T05:12:36.091Z,18.40
2018-10-18T05:15:06.055Z,18.73
2018-10-18T05:17:35.368Z,19.07
2018-10-18T05:20:04.929Z,19.30
2018-10-18T05:22:34.185Z,17.03
2018-10-18T05:25:03.789Z,16.65
2018-10-18T05:27:44.645Z,17.10
2018-10-18T05:30:14.111Z,21.97
2018-10-18T05:32:43.560Z,18.20
2018-10-18T05:35:12.951Z,19.03
2018-10-18T05:37:42.508Z,22.83
2018-10-18T05:40:12.305Z,23.73
2018-10-18T05:42:41.733Z,39.73
2018-10-18T05:45:10.997Z,48.97
2018-10-18T05:47:40.967Z,29.10
2018-10-18T05:50:10.805Z,30.37
2018-10-18T05:52:40.488Z,21.97
2018-10-18T05:55:11.317Z,27.33
2018-10-18T05:57:41.123Z,20.63
2018-10-18T06:00:13.499Z,20.07
2018-10-18T06:02:48.055Z,22.00
2018-10-18T06:05:18.196Z,18.20
2018-10-18T06:07:48.024Z,18.43
2018-10-18T06:10:28.746Z,17.80
2018-10-18T06:12:58.107Z,23.37
2018-10-18T06:15:27.618Z,22.37
2018-10-18T06:17:56.887Z,20.07
2018-10-18T06:20:26.138Z,27.50
2018-10-18T06:22:55.795Z,20.13
2018-10-18T06:25:24.967Z,24.50
2018-10-18T06:27:54.485Z,20.53
2018-10-18T06:30:23.526Z,22.07
2018-10-18T06:32:52.888Z,22.87
2018-10-18T06:35:22.486Z,21.10
2018-10-18T06:37:51.730Z,20.13
2018-10-18T06:40:21.246Z,21.57
2018-10-18T06:42:50.515Z,21.90
2018-10-18T06:45:20.488Z,19.80
2018-10-18T06:47:49.935Z,19.50
2018-10-18T06:50:20.650Z,19.50
2018-10-18T06:52:49.769Z,19.93
2018-10-18T06:55:19.330Z,22.00
2018-10-18T06:57:49.113Z,23.50
2018-10-18T07:00:25.066Z,22.03
2018-10-18T07:02:54.652Z,24.23
2018-10-18T07:05:23.899Z,25.67
2018-10-18T07:07:53.595Z,22.97
2018-10-18T07:10:22.942Z,25.10
2018-10-18T07:12:52.400Z,21.77
2018-10-18T07:15:21.741Z,23.33
2018-10-18T07:17:51.048Z,22.83
2018-10-18T07:20:20.345Z,20.97
2018-10-18T07:22:49.752Z,21.00
2018-10-18T07:25:19.093Z,25.63
2018-10-18T07:27:48.368Z,22.67
2018-10-18T07:30:17.957Z,21.83
2018-10-18T07:32:47.568Z,21.40
2018-10-18T07:35:16.922Z,21.17
2018-10-18T07:37:46.470Z,20.33
2018-10-18T07:40:16.851Z,20.00
2018-10-18T07:42:46.121Z,19.50
2018-10-18T07:45:15.692Z,22.50
2018-10-18T07:47:45.753Z,24.60
2018-10-18T07:50:15.048Z,23.83
2018-10-18T07:52:44.297Z,21.30
2018-10-18T07:55:14.417Z,21.60
2018-10-18T07:57:43.624Z,21.33
2018-10-18T08:00:14.188Z,21.20
2018-10-18T08:02:44.245Z,19.57
2018-10-18T08:05:14.028Z,20.43
2018-10-18T08:07:43.096Z,22.33
2018-10-18T08:10:15.390Z,20.77
2018-10-18T08:12:44.708Z,21.80
2018-10-18T08:15:15.430Z,24.87
2018-10-18T08:17:45.286Z,23.40
2018-10-18T08:20:15.480Z,21.77
2018-10-18T08:22:45.323Z,23.30
2018-10-18T08:25:15.350Z,30.70
2018-10-18T08:27:44.729Z,27.93
2018-10-18T08:30:14.646Z,25.90
2018-10-18T08:32:44.080Z,27.23
2018-10-18T08:35:13.668Z,26.93
2018-10-18T08:37:42.939Z,25.00
2018-10-18T08:40:12.110Z,26.70
2018-10-18T08:42:41.681Z,27.00
2018-10-18T08:47:48.464Z,28.67
2018-10-18T08:50:17.936Z,24.20
2018-10-18T08:52:47.700Z,28.30
2018-10-18T08:55:16.933Z,25.10
2018-10-18T08:57:46.556Z,24.27
2018-10-18T09:05:57.506Z,28.63
2018-10-18T09:08:26.726Z,30.70
2018-10-18T09:10:56.071Z,28.53
2018-10-18T09:13:25.625Z,28.33
2018-10-18T09:15:54.972Z,28.50
2018-10-18T09:18:24.327Z,27.40
2018-10-18T09:20:54.178Z,34.37
2018-10-18T09:23:24.358Z,28.67
2018-10-18T09:25:54.442Z,26.97
2018-10-18T09:28:23.981Z,32.13
2018-10-18T09:30:54.000Z,26.30
2018-10-18T09:33:23.358Z,25.03
2018-10-18T09:35:52.708Z,24.33
2018-10-18T09:38:22.600Z,29.67
2018-10-18T09:40:52.052Z,30.03
2018-10-18T09:43:21.514Z,31.90
2018-10-18T09:45:51.134Z,32.50
2018-10-18T09:48:20.639Z,33.20
2018-10-18T09:50:49.970Z,37.53
2018-10-18T09:53:19.680Z,27.97
2018-10-18T09:55:49.371Z,27.62
2018-10-18T09:58:18.558Z,27.50
2018-10-18T10:00:53.017Z,25.43
2018-10-18T10:03:22.442Z,29.53
2018-10-18T10:05:51.886Z,27.20
2018-10-18T10:08:21.197Z,26.30
2018-10-18T10:10:50.494Z,25.17
2018-10-18T10:13:20.023Z,28.10
2018-10-18T10:15:49.316Z,26.83
2018-10-18T10:18:18.334Z,24.20
2018-10-18T10:20:48.009Z,23.80
2018-10-18T10:23:17.184Z,29.30
2018-10-18T10:25:46.628Z,30.17
2018-10-18T10:28:15.945Z,30.10
2018-10-18T10:30:45.374Z,31.13
2018-10-18T10:33:14.419Z,32.20
2018-10-18T10:35:43.848Z,32.27
2018-10-18T10:38:13.310Z,33.17
2018-10-18T10:40:43.063Z,30.93
2018-10-18T10:43:12.371Z,30.17
2018-10-18T10:45:41.849Z,31.30
2018-10-18T10:48:11.477Z,30.50
2018-10-18T10:50:40.788Z,30.27
2018-10-18T10:53:10.034Z,29.37
2018-10-18T10:55:39.386Z,28.03
2018-10-18T10:58:08.820Z,24.70
2018-10-18T11:01:20.230Z,32.53
2018-10-18T11:03:50.661Z,29.23
2018-10-18T11:06:20.123Z,28.37
2018-10-18T11:08:49.329Z,24.27
2018-10-18T11:11:18.873Z,30.23
2018-10-18T11:13:48.304Z,29.63
2018-10-18T11:16:17.667Z,31.17
2018-10-18T11:18:47.309Z,28.70
2018-10-18T11:21:17.811Z,28.73
2018-10-18T11:23:47.088Z,27.67
2018-10-18T11:26:16.359Z,30.07
2018-10-18T11:28:45.706Z,28.97
2018-10-18T11:31:15.106Z,30.03
2018-10-18T11:33:44.207Z,27.73
2018-10-18T11:36:13.412Z,30.70
2018-10-18T11:38:42.755Z,26.70
2018-10-18T11:41:12.373Z,26.83
2018-10-18T11:43:41.677Z,25.83
2018-10-18T11:46:11.025Z,23.63
2018-10-18T11:48:40.731Z,30.50
2018-10-18T11:51:10.825Z,31.47
2018-10-18T11:53:40.017Z,36.87
2018-10-18T11:56:09.427Z,23.27
2018-10-18T11:58:38.947Z,26.27
2018-10-18T12:01:08.178Z,25.47
2018-10-18T12:03:37.393Z,25.80
2018-10-18T12:06:07.028Z,27.07
2018-10-18T12:08:36.116Z,25.03
2018-10-18T12:11:05.556Z,25.47
2018-10-18T12:13:35.716Z,25.40
2018-10-18T12:16:04.973Z,24.10
2018-10-18T12:18:34.048Z,25.27
2018-10-18T12:21:03.764Z,22.73
2018-10-18T12:23:33.309Z,23.73
2018-10-18T12:26:02.927Z,22.85
2018-10-18T12:28:32.307Z,25.10
2018-10-18T12:31:01.652Z,20.80
2018-10-18T12:33:30.828Z,19.77
2018-10-18T12:36:00.607Z,19.82
2018-10-18T12:38:30.141Z,19.67
2018-10-18T12:40:59.671Z,19.37
2018-10-18T12:43:28.930Z,20.30
2018-10-18T12:45:58.083Z,19.15
2018-10-18T12:48:27.462Z,17.75
2018-10-18T12:50:57.105Z,15.68
2018-10-18T12:53:26.735Z,17.73
2018-10-18T12:56:05.999Z,15.85
2018-10-18T12:58:35.155Z,16.45
2018-10-18T13:01:04.927Z,16.77
2018-10-18T13:03:34.151Z,15.88
2018-10-18T13:06:03.767Z,15.38
2018-10-18T13:08:33.318Z,14.95
2018-10-18T13:11:02.544Z,15.90
2018-10-18T13:13:32.365Z,19.80
2018-10-18T13:16:01.700Z,17.80
2018-10-18T13:18:31.146Z,16.82
2018-10-18T13:21:00.305Z,14.83
2018-10-18T13:23:29.492Z,14.05
2018-10-18T13:25:58.817Z,15.58
2018-10-18T13:28:28.409Z,18.52
2018-10-18T13:30:57.841Z,16.65
2018-10-18T13:33:27.241Z,15.25
2018-10-18T13:35:56.797Z,17.10
2018-10-18T13:38:26.366Z,16.15
2018-10-18T13:40:55.787Z,16.23
2018-10-18T13:43:24.955Z,16.48
2018-10-18T13:45:54.687Z,16.00
2018-10-18T13:48:24.448Z,16.37
2018-10-18T13:50:53.671Z,16.45
2018-10-18T13:53:23.087Z,17.15
2018-10-18T13:55:52.296Z,17.37
2018-10-18T13:58:27.175Z,16.00
2018-10-18T14:00:56.451Z,20.17
2018-10-18T14:03:25.994Z,18.37
2018-10-18T14:05:55.273Z,16.20
2018-10-18T14:08:24.684Z,18.63
2018-10-18T14:10:53.974Z,17.30
2018-10-18T14:13:23.082Z,19.33
2018-10-18T14:15:52.609Z,15.90
2018-10-18T14:18:22.113Z,18.13
2018-10-18T14:20:51.320Z,16.93
2018-10-18T14:23:20.707Z,16.13
2018-10-18T14:25:50.300Z,15.47
2018-10-18T14:28:19.616Z,17.47
2018-10-18T14:30:49.092Z,17.27
2018-10-18T14:33:32.134Z,17.20
2018-10-18T14:36:01.410Z,17.40
2018-10-18T14:38:30.640Z,17.97
2018-10-18T14:41:00.040Z,18.63
2018-10-18T14:43:29.690Z,20.50
2018-10-18T14:45:59.068Z,17.97
2018-10-18T14:48:28.245Z,18.30
2018-10-18T14:50:57.380Z,19.70
2018-10-18T14:53:26.908Z,19.77
2018-10-18T14:55:56.283Z,16.47
2018-10-18T14:58:25.499Z,16.53
2018-10-18T15:00:54.566Z,16.37
2018-10-18T15:03:23.674Z,16.13
2018-10-18T15:05:52.972Z,16.93
2018-10-18T15:08:22.198Z,19.50
2018-10-18T15:10:51.426Z,16.83
2018-10-18T15:13:20.674Z,16.20
2018-10-18T15:15:49.952Z,15.83
2018-10-18T15:18:19.059Z,16.17
2018-10-18T15:20:48.308Z,15.60
2018-10-18T15:23:17.368Z,17.73
2018-10-18T15:25:47.693Z,17.73
2018-10-18T15:28:16.819Z,17.70
2018-10-18T15:30:46.120Z,17.53
2018-10-18T15:33:15.370Z,16.07
2018-10-18T15:35:44.572Z,16.20
2018-10-18T15:38:13.905Z,16.40
2018-10-18T15:40:43.067Z,16.80
2018-10-18T15:43:12.396Z,16.77
2018-10-18T15:45:41.514Z,15.37
2018-10-18T15:48:10.539Z,16.17
2018-10-18T15:50:39.727Z,15.80
2018-10-18T15:53:08.958Z,14.77
2018-10-18T15:55:38.291Z,14.97
2018-10-18T15:58:07.407Z,17.37
2018-10-18T16:00:36.670Z,15.03
2018-10-18T16:03:06.090Z,15.07
2018-10-18T16:05:35.448Z,15.20
2018-10-18T16:08:04.612Z,19.00
2018-10-18T16:10:33.821Z,17.37
2018-10-18T16:13:03.121Z,17.30
2018-10-18T16:15:32.672Z,17.60
2018-10-18T16:18:02.224Z,17.63
2018-10-18T16:20:32.162Z,19.60
2018-10-18T16:23:06.763Z,17.73
2018-10-18T16:25:36.138Z,16.87
2018-10-18T16:28:16.822Z,17.67
2018-10-18T16:30:46.156Z,17.10
2018-10-18T16:33:16.042Z,18.03
2018-10-18T16:35:46.540Z,18.57
2018-10-18T16:38:22.986Z,19.70
2018-10-18T16:41:06.920Z,17.53
2018-10-18T16:43:41.523Z,16.53
2018-10-18T16:46:11.810Z,16.50
2018-10-18T16:54:00.928Z,17.20
2018-10-18T16:56:32.118Z,17.40
2018-10-18T16:59:03.110Z,18.63
2018-10-18T17:01:32.250Z,18.77
2018-10-18T17:04:29.406Z,19.13
2018-10-18T17:06:58.750Z,19.17
2018-10-18T17:09:28.196Z,19.37
2018-10-18T17:11:57.691Z,19.80
2018-10-18T17:14:27.899Z,19.83
2018-10-18T17:16:57.222Z,20.90
2018-10-18T17:19:26.744Z,20.70
2018-10-18T17:21:55.989Z,19.80
2018-10-18T17:24:24.950Z,20.27
2018-10-18T17:26:53.936Z,20.47
2018-10-18T17:29:22.970Z,20.17
2018-10-18T17:31:52.600Z,20.80
2018-10-18T17:34:21.630Z,20.50
2018-10-18T17:36:50.812Z,20.17
2018-10-18T17:39:20.151Z,21.47
2018-10-18T17:41:49.028Z,20.40
2018-10-18T17:44:18.161Z,22.03
2018-10-18T17:46:48.666Z,20.47
2018-10-18T17:49:23.305Z,22.20
2018-10-18T17:51:54.574Z,21.57
2018-10-18T17:54:23.526Z,22.07
2018-10-18T17:56:56.177Z,21.43
2018-10-18T17:59:35.028Z,21.67
2018-10-18T18:02:03.978Z,21.40
2018-10-18T18:04:46.204Z,22.60
2018-10-18T18:07:16.067Z,23.20
2018-10-18T18:09:45.644Z,23.03
2018-10-18T18:12:15.087Z,23.53
2018-10-18T18:14:51.427Z,22.77
2018-10-18T18:17:20.759Z,24.10
2018-10-18T18:19:50.103Z,23.63
2018-10-18T18:22:19.671Z,23.20
2018-10-18T18:24:49.169Z,22.93
2018-10-18T18:27:18.611Z,23.47
2018-10-18T18:29:48.075Z,22.63
2018-10-18T18:32:17.210Z,22.83
2018-10-18T18:35:06.800Z,22.83
2018-10-18T18:37:36.995Z,25.17
2018-10-18T18:40:09.329Z,23.00
2018-10-18T18:42:40.707Z,24.00
2018-10-18T18:45:15.134Z,24.13
2018-10-18T18:47:44.219Z,23.90
2018-10-18T18:50:13.413Z,23.70
2018-10-18T18:52:50.373Z,24.80
2018-10-18T18:55:19.627Z,25.77
2018-10-18T18:57:49.073Z,23.70
2018-10-18T19:00:18.909Z,24.87
2018-10-18T19:02:48.651Z,24.80
2018-10-18T19:05:17.943Z,24.17
2018-10-18T19:07:51.182Z,23.47
2018-10-18T19:10:20.508Z,25.63
2018-10-18T19:12:50.685Z,26.57
2018-10-18T19:15:19.866Z,29.37
2018-10-18T19:17:49.356Z,29.07
2018-10-18T19:20:19.070Z,25.83
2018-10-18T19:22:48.421Z,26.77
2018-10-18T19:25:28.842Z,27.70
2018-10-18T19:27:58.073Z,30.40
2018-10-18T19:30:27.392Z,29.23
2018-10-18T19:32:56.466Z,31.30
2018-10-18T19:35:25.825Z,29.87
2018-10-18T19:37:55.143Z,31.03
2018-10-18T19:40:24.823Z,30.33
2018-10-18T19:42:54.262Z,32.83
2018-10-18T19:45:24.505Z,31.80
2018-10-18T19:47:53.885Z,32.67
2018-10-18T19:50:24.144Z,30.73
2018-10-18T19:52:53.326Z,32.27
2018-10-18T19:55:24.084Z,32.37
2018-10-18T19:57:53.439Z,34.40
2018-10-18T20:00:22.853Z,35.20
2018-10-18T20:02:52.349Z,36.85
2018-10-18T20:05:21.693Z,35.43
2018-10-18T20:07:51.331Z,34.67
2018-10-18T20:10:24.717Z,35.60
2018-10-18T20:12:56.349Z,38.13
2018-10-18T20:15:30.367Z,37.30
2018-10-18T20:17:59.796Z,38.20
2018-10-18T20:20:29.235Z,38.80
2018-10-18T20:23:01.356Z,39.20
2018-10-18T20:25:30.784Z,38.87
2018-10-18T20:28:00.843Z,39.63
2018-10-18T20:30:30.091Z,41.20
2018-10-18T20:32:59.373Z,41.00
2018-10-18T20:35:29.394Z,42.17
2018-10-18T20:37:59.447Z,40.93
2018-10-18T20:40:28.765Z,41.23
2018-10-18T20:42:58.355Z,39.23
2018-10-18T20:45:34.239Z,42.73
2018-10-18T20:48:04.200Z,43.50
2018-10-18T20:50:33.856Z,42.80
2018-10-18T20:53:02.841Z,41.73
2018-10-18T20:55:32.243Z,41.37
2018-10-18T20:58:02.020Z,43.43
2018-10-18T21:00:31.268Z,42.20
2018-10-18T21:03:00.650Z,41.10
2018-10-18T21:05:29.936Z,40.83
2018-10-18T21:07:59.148Z,39.07
2018-10-18T21:10:28.355Z,42.27
2018-10-18T21:12:57.661Z,43.70
2018-10-18T21:15:26.908Z,43.80
2018-10-18T21:17:56.515Z,43.80
2018-10-18T21:20:25.879Z,43.20
2018-10-18T21:22:56.073Z,44.23
2018-10-18T21:25:25.390Z,47.50
2018-10-18T21:27:55.186Z,47.33
2018-10-18T21:30:48.367Z,47.73
2018-10-18T21:33:18.427Z,49.67
2018-10-18T21:35:47.658Z,48.33
2018-10-18T21:38:20.451Z,49.03
2018-10-18T21:40:49.525Z,48.80
2018-10-18T21:43:18.988Z,50.00
2018-10-18T21:45:48.436Z,48.80
2018-10-18T21:48:17.795Z,49.60
2018-10-18T21:50:47.111Z,47.07
2018-10-18T21:53:17.044Z,47.13
2018-10-18T21:55:46.579Z,49.30
2018-10-18T21:58:16.302Z,48.60
2018-10-18T22:00:46.639Z,48.20
2018-10-18T22:03:20.203Z,54.90
2018-10-18T22:05:49.652Z,53.00
2018-10-18T22:08:19.063Z,50.63
2018-10-18T22:10:48.655Z,49.13
2018-10-18T22:13:18.121Z,49.93
2018-10-18T22:15:47.433Z,50.43
2018-10-18T22:18:16.776Z,50.57
2018-10-18T22:20:46.033Z,49.40
2018-10-18T22:23:15.672Z,51.77
2018-10-18T22:25:44.940Z,54.43
2018-10-18T22:28:14.159Z,52.60
2018-10-18T22:30:43.570Z,51.77
2018-10-18T22:33:13.201Z,50.53
2018-10-18T22:35:42.861Z,49.63
2018-10-18T22:38:12.108Z,51.83
2018-10-18T22:40:41.456Z,48.47
2018-10-18T22:43:12.602Z,47.47
2018-10-18T22:45:46.194Z,42.30
2018-10-18T22:48:15.870Z,47.03
2018-10-18T22:50:45.231Z,42.17
2018-10-18T22:53:14.641Z,41.37
2018-10-18T22:55:44.360Z,45.37
2018-10-18T22:58:13.676Z,45.10
2018-10-18T23:00:47.071Z,45.33
2018-10-18T23:03:17.014Z,43.73
2018-10-18T23:05:46.224Z,49.50
2018-10-18T23:08:16.201Z,41.07
2018-10-18T23:10:45.913Z,39.07
2018-10-18T23:13:15.444Z,50.10
2018-10-18T23:15:45.117Z,49.43
2018-10-18T23:18:14.385Z,53.33
2018-10-18T23:20:43.627Z,54.07
2018-10-18T23:23:13.019Z,62.27
2018-10-18T23:25:42.373Z,65.33
2018-10-18T23:28:11.351Z,58.03
2018-10-18T23:30:48.658Z,48.30
2018-10-18T23:33:17.879Z,46.73
2018-10-18T23:35:47.366Z,45.53
2018-10-18T23:38:16.794Z,53.50
2018-10-18T23:40:46.177Z,51.00
2018-10-18T23:43:15.421Z,44.70
2018-10-18T23:45:44.900Z,41.43
2018-10-18T23:48:14.024Z,43.43
2018-10-18T23:50:43.488Z,42.77
2018-10-18T23:53:13.104Z,47.83
2018-10-18T23:55:42.262Z,51.77
2018-10-18T23:58:11.632Z,50.17
